sensor_id;sensor_type;location;lat;lon;timestamp;pressure;altitude;pressure_sealevel;temperature;humidity
39681;BME280;26327;42.550;23.120;2023-06-10T13:54:47;92397.16;;;19.64;100.00
39681;BME280;26327;42.550;23.120;2023-06-10T13:57:13;92369.66;;;20.04;100.00
39681;BME280;26327;42.550;23.120;2023-06-10T13:59:38;92349.56;;;20.30;100.00
39681;BME280;26327;42.550;23.120;2023-06-10T14:02:04;92381.34;;;20.72;100.00
39681;BME280;26327;42.550;23.120;2023-06-10T14:04:29;92345.22;;;20.40;99.08
39681;BME280;26327;42.550;23.120;2023-06-10T14:06:56;92379.41;;;20.94;99.56
39681;BME280;26327;42.550;23.120;2023-06-10T14:09:22;92377.69;;;20.78;98.91
39681;BME280;26327;42.550;23.120;2023-06-10T14:11:47;92364.34;;;20.58;100.00
39681;BME280;26327;42.550;23.120;2023-06-10T14:14:13;92315.41;;;20.13;100.00
39681;BME280;26327;42.550;23.120;2023-06-10T14:16:39;92345.69;;;20.69;99.19
39681;BME280;26327;42.550;23.120;2023-06-10T14:19:04;92304.28;;;20.38;100.00
39681;BME280;26327;42.550;23.120;2023-06-10T14:21:30;92361.09;;;21.25;99.20
39681;BME280;26327;42.550;23.120;2023-06-10T14:23:55;92353.97;;;20.83;100.00
39681;BME280;26327;42.550;23.120;2023-06-10T14:26:21;92359.81;;;20.90;100.00
39681;BME280;26327;42.550;23.120;2023-06-10T14:28:47;92351.50;;;20.71;100.00
39681;BME280;26327;42.550;23.120;2023-06-10T14:31:13;92361.09;;;20.83;100.00
39681;BME280;26327;42.550;23.120;2023-06-10T14:33:38;92354.34;;;21.02;100.00
39681;BME280;26327;42.550;23.120;2023-06-10T14:36:05;92321.75;;;20.44;100.00
39681;BME280;26327;42.550;23.120;2023-06-10T14:38:30;92278.69;;;20.38;100.00
39681;BME280;26327;42.550;23.120;2023-06-10T14:40:55;92338.06;;;20.78;100.00
39681;BME280;26327;42.550;23.120;2023-06-10T14:43:21;92345.34;;;21.40;100.00
39681;BME280;26327;42.550;23.120;2023-06-10T14:45:46;92348.31;;;21.06;100.00
39681;BME280;26327;42.550;23.120;2023-06-10T14:48:11;92279.97;;;20.36;100.00
39681;BME280;26327;42.550;23.120;2023-06-10T14:50:38;92285.72;;;20.33;100.00
39681;BME280;26327;42.550;23.120;2023-06-10T14:53:05;92270.28;;;20.84;100.00
39681;BME280;26327;42.550;23.120;2023-06-10T14:55:30;92262.03;;;21.27;100.00
39681;BME280;26327;42.550;23.120;2023-06-10T14:57:56;92328.47;;;21.56;100.00
39681;BME280;26327;42.550;23.120;2023-06-10T15:00:23;92234.53;;;21.28;100.00
39681;BME280;26327;42.550;23.120;2023-06-10T15:02:49;92265.91;;;19.93;100.00
39681;BME280;26327;42.550;23.120;2023-06-10T15:05:16;92285.66;;;20.23;100.00
39681;BME280;26327;42.550;23.120;2023-06-10T15:07:42;92307.66;;;20.70;100.00
39681;BME280;26327;42.550;23.120;2023-06-10T15:10:08;92283.75;;;20.13;100.00
39681;BME280;26327;42.550;23.120;2023-06-10T15:12:34;92277.97;;;19.57;100.00
39681;BME280;26327;42.550;23.120;2023-06-10T15:15:00;92299.88;;;19.63;100.00
39681;BME280;26327;42.550;23.120;2023-06-10T15:17:26;92181.13;;;18.50;100.00
39681;BME280;26327;42.550;23.120;2023-06-10T15:19:51;92235.94;;;19.45;100.00
39681;BME280;26327;42.550;23.120;2023-06-10T15:22:17;92235.38;;;19.97;100.00
39681;BME280;26327;42.550;23.120;2023-06-10T15:24:42;92225.03;;;19.91;100.00
39681;BME280;26327;42.550;23.120;2023-06-10T15:27:08;92257.34;;;20.40;100.00
39681;BME280;26327;42.550;23.120;2023-06-10T15:29:33;92229.09;;;20.83;100.00
39681;BME280;26327;42.550;23.120;2023-06-10T15:31:58;92283.91;;;20.70;100.00
39681;BME280;26327;42.550;23.120;2023-06-10T15:34:24;92230.53;;;20.58;100.00
39681;BME280;26327;42.550;23.120;2023-06-10T15:36:50;92299.16;;;20.58;100.00
39681;BME280;26327;42.550;23.120;2023-06-10T15:39:15;92174.97;;;19.96;100.00
39681;BME280;26327;42.550;23.120;2023-06-10T15:41:40;92266.84;;;20.41;100.00
39681;BME280;26327;42.550;23.120;2023-06-10T15:44:06;92282.84;;;20.66;100.00
39681;BME280;26327;42.550;23.120;2023-06-10T15:46:31;92205.75;;;20.64;100.00
39681;BME280;26327;42.550;23.120;2023-06-10T15:48:57;92289.09;;;20.97;100.00
39681;BME280;26327;42.550;23.120;2023-06-10T15:51:23;92239.34;;;20.79;100.00
39681;BME280;26327;42.550;23.120;2023-06-10T15:53:48;92260.19;;;20.75;100.00
39681;BME280;26327;42.550;23.120;2023-06-10T15:56:14;92222.88;;;21.19;94.85
39681;BME280;26327;42.550;23.120;2023-06-10T15:58:40;92277.75;;;21.75;97.41
39681;BME280;26327;42.550;23.120;2023-06-10T16:01:06;92283.63;;;22.02;96.93
39681;BME280;26327;42.550;23.120;2023-06-10T16:03:32;92250.28;;;21.81;100.00
39681;BME280;26327;42.550;23.120;2023-06-10T16:05:57;92287.84;;;21.78;99.92
39681;BME280;26327;42.550;23.120;2023-06-10T16:08:22;92308.94;;;21.67;95.22
39681;BME280;26327;42.550;23.120;2023-06-10T16:10:48;92214.34;;;20.97;96.37
39681;BME280;26327;42.550;23.120;2023-06-10T16:13:13;92313.63;;;21.40;93.47
39681;BME280;26327;42.550;23.120;2023-06-10T16:15:39;92312.19;;;21.22;95.66
39681;BME280;26327;42.550;23.120;2023-06-10T16:18:04;92302.97;;;21.25;94.53
39681;BME280;26327;42.550;23.120;2023-06-10T16:20:30;92319.50;;;21.67;97.82
39681;BME280;26327;42.550;23.120;2023-06-10T16:22:55;92224.25;;;20.69;93.86
39681;BME280;26327;42.550;23.120;2023-06-10T16:25:21;92249.50;;;21.02;97.05
39681;BME280;26327;42.550;23.120;2023-06-10T16:27:46;92302.31;;;21.60;100.00
39681;BME280;26327;42.550;23.120;2023-06-10T16:30:12;92284.59;;;21.55;100.00
39681;BME280;26327;42.550;23.120;2023-06-10T16:32:39;92276.97;;;21.06;100.00
39681;BME280;26327;42.550;23.120;2023-06-10T16:35:06;92288.13;;;20.71;100.00
39681;BME280;26327;42.550;23.120;2023-06-10T16:37:32;92305.44;;;20.94;100.00
39681;BME280;26327;42.550;23.120;2023-06-10T16:39:57;92306.72;;;21.29;100.00
39681;BME280;26327;42.550;23.120;2023-06-10T16:42:22;92306.06;;;21.12;100.00
39681;BME280;26327;42.550;23.120;2023-06-10T16:44:48;92314.78;;;21.12;100.00
39681;BME280;26327;42.550;23.120;2023-06-10T16:47:13;92317.59;;;21.43;100.00
39681;BME280;26327;42.550;23.120;2023-06-10T16:49:38;92252.41;;;21.06;100.00
39681;BME280;26327;42.550;23.120;2023-06-10T16:52:05;92315.78;;;21.58;100.00
39681;BME280;26327;42.550;23.120;2023-06-10T16:54:30;92301.59;;;21.17;100.00
39681;BME280;26327;42.550;23.120;2023-06-10T16:56:56;92326.75;;;21.25;100.00
39681;BME280;26327;42.550;23.120;2023-06-10T16:59:21;92321.66;;;21.18;100.00
39681;BME280;26327;42.550;23.120;2023-06-10T17:01:47;92329.28;;;21.10;100.00
39681;BME280;26327;42.550;23.120;2023-06-10T17:04:12;92259.47;;;20.85;100.00
39681;BME280;26327;42.550;23.120;2023-06-10T17:06:38;92327.97;;;21.64;100.00
39681;BME280;26327;42.550;23.120;2023-06-10T17:09:04;92256.88;;;20.95;100.00
39681;BME280;26327;42.550;23.120;2023-06-10T17:11:29;92280.72;;;20.68;100.00
39681;BME280;26327;42.550;23.120;2023-06-10T17:13:56;92329.72;;;20.22;100.00
39681;BME280;26327;42.550;23.120;2023-06-10T17:16:22;92329.31;;;20.35;100.00
39681;BME280;26327;42.550;23.120;2023-06-10T17:18:47;92331.50;;;20.17;100.00
39681;BME280;26327;42.550;23.120;2023-06-10T17:21:12;92332.81;;;20.14;100.00
39681;BME280;26327;42.550;23.120;2023-06-10T17:23:38;92259.19;;;19.80;100.00
39681;BME280;26327;42.550;23.120;2023-06-10T17:26:04;92343.69;;;20.23;100.00
39681;BME280;26327;42.550;23.120;2023-06-10T17:28:29;92272.28;;;19.70;100.00
39681;BME280;26327;42.550;23.120;2023-06-10T17:30:55;92338.53;;;20.06;100.00
39681;BME280;26327;42.550;23.120;2023-06-10T17:33:20;92335.78;;;20.50;100.00
39681;BME280;26327;42.550;23.120;2023-06-10T17:35:46;92282.28;;;19.68;100.00
39681;BME280;26327;42.550;23.120;2023-06-10T17:38:12;92348.66;;;20.41;100.00
39681;BME280;26327;42.550;23.120;2023-06-10T17:40:38;92325.44;;;20.16;100.00
39681;BME280;26327;42.550;23.120;2023-06-10T17:43:04;92323.34;;;20.45;100.00
39681;BME280;26327;42.550;23.120;2023-06-10T17:45:29;92264.13;;;19.45;100.00
39681;BME280;26327;42.550;23.120;2023-06-10T17:47:55;92267.72;;;19.39;100.00
39681;BME280;26327;42.550;23.120;2023-06-10T17:50:20;92351.63;;;19.96;100.00
39681;BME280;26327;42.550;23.120;2023-06-10T17:52:46;92337.06;;;19.88;100.00
39681;BME280;26327;42.550;23.120;2023-06-10T17:55:11;92288.63;;;19.45;100.00
39681;BME280;26327;42.550;23.120;2023-06-10T17:57:36;92349.50;;;19.93;100.00
39681;BME280;26327;42.550;23.120;2023-06-10T18:00:02;92318.75;;;19.33;100.00
39681;BME280;26327;42.550;23.120;2023-06-10T18:02:27;92259.47;;;18.86;100.00
39681;BME280;26327;42.550;23.120;2023-06-10T18:04:53;92346.72;;;19.83;100.00
39681;BME280;26327;42.550;23.120;2023-06-10T18:07:18;92331.41;;;19.79;100.00
39681;BME280;26327;42.550;23.120;2023-06-10T18:09:44;92352.81;;;19.83;100.00
39681;BME280;26327;42.550;23.120;2023-06-10T18:12:10;92318.78;;;19.55;100.00
39681;BME280;26327;42.550;23.120;2023-06-10T18:14:35;92339.84;;;20.03;100.00
39681;BME280;26327;42.550;23.120;2023-06-10T18:17:01;92317.34;;;19.96;100.00
39681;BME280;26327;42.550;23.120;2023-06-10T18:19:26;92290.53;;;19.77;100.00
39681;BME280;26327;42.550;23.120;2023-06-10T18:21:51;92357.28;;;19.83;100.00
39681;BME280;26327;42.550;23.120;2023-06-10T18:24:18;92347.13;;;19.69;100.00
39681;BME280;26327;42.550;23.120;2023-06-10T18:26:46;92352.72;;;19.51;100.00
39681;BME280;26327;42.550;23.120;2023-06-10T18:29:11;92358.44;;;19.04;100.00
39681;BME280;26327;42.550;23.120;2023-06-10T18:31:36;92335.06;;;18.91;100.00
39681;BME280;26327;42.550;23.120;2023-06-10T18:34:02;92288.00;;;18.56;100.00
39681;BME280;26327;42.550;23.120;2023-06-10T18:36:28;92362.56;;;18.45;100.00
39681;BME280;26327;42.550;23.120;2023-06-10T18:38:54;92339.44;;;18.64;100.00
39681;BME280;26327;42.550;23.120;2023-06-10T18:41:24;92367.16;;;19.27;100.00
39681;BME280;26327;42.550;23.120;2023-06-10T18:43:49;92370.16;;;19.13;100.00
39681;BME280;26327;42.550;23.120;2023-06-10T18:46:15;92357.03;;;19.18;100.00
39681;BME280;26327;42.550;23.120;2023-06-10T18:48:40;92365.88;;;19.51;100.00
39681;BME280;26327;42.550;23.120;2023-06-10T18:51:08;92362.50;;;19.34;100.00
39681;BME280;26327;42.550;23.120;2023-06-10T18:53:34;92351.03;;;19.01;100.00
39681;BME280;26327;42.550;23.120;2023-06-10T18:55:59;92314.63;;;18.76;100.00
39681;BME280;26327;42.550;23.120;2023-06-10T18:58:31;92375.66;;;19.34;100.00
39681;BME280;26327;42.550;23.120;2023-06-10T19:01:02;92336.00;;;18.30;100.00
39681;BME280;26327;42.550;23.120;2023-06-10T19:03:29;92395.25;;;19.21;100.00
39681;BME280;26327;42.550;23.120;2023-06-10T19:05:55;92341.34;;;18.68;100.00
39681;BME280;26327;42.550;23.120;2023-06-10T19:08:20;92391.25;;;18.80;100.00
39681;BME280;26327;42.550;23.120;2023-06-10T19:10:45;92333.44;;;18.01;100.00
39681;BME280;26327;42.550;23.120;2023-06-10T19:13:11;92367.66;;;18.68;100.00
39681;BME280;26327;42.550;23.120;2023-06-10T19:15:38;92382.81;;;18.78;100.00
39681;BME280;26327;42.550;23.120;2023-06-10T19:18:03;92299.19;;;18.30;100.00
39681;BME280;26327;42.550;23.120;2023-06-10T19:20:29;92372.03;;;18.79;100.00
39681;BME280;26327;42.550;23.120;2023-06-10T19:22:55;92406.88;;;18.53;100.00
39681;BME280;26327;42.550;23.120;2023-06-10T19:25:20;92399.59;;;18.43;100.00
39681;BME280;26327;42.550;23.120;2023-06-10T19:27:46;92344.13;;;18.28;100.00
39681;BME280;26327;42.550;23.120;2023-06-10T19:30:12;92320.13;;;18.08;100.00
39681;BME280;26327;42.550;23.120;2023-06-10T19:32:37;92361.00;;;18.32;100.00
39681;BME280;26327;42.550;23.120;2023-06-10T19:35:03;92382.31;;;18.47;100.00
39681;BME280;26327;42.550;23.120;2023-06-10T19:37:29;92395.53;;;18.36;100.00
39681;BME280;26327;42.550;23.120;2023-06-10T19:39:56;92327.19;;;17.62;100.00
39681;BME280;26327;42.550;23.120;2023-06-10T19:42:21;92339.84;;;17.77;100.00
39681;BME280;26327;42.550;23.120;2023-06-10T19:44:47;92382.19;;;18.09;100.00
39681;BME280;26327;42.550;23.120;2023-06-10T19:47:16;92396.50;;;18.46;100.00
39681;BME280;26327;42.550;23.120;2023-06-10T19:49:41;92404.53;;;18.40;100.00
39681;BME280;26327;42.550;23.120;2023-06-10T19:52:07;92396.25;;;18.31;100.00
39681;BME280;26327;42.550;23.120;2023-06-10T19:54:33;92395.19;;;17.47;100.00
39681;BME280;26327;42.550;23.120;2023-06-10T19:56:59;92387.25;;;17.30;100.00
39681;BME280;26327;42.550;23.120;2023-06-10T19:59:26;92380.03;;;17.37;100.00
39681;BME280;26327;42.550;23.120;2023-06-10T20:01:51;92381.31;;;17.23;100.00
39681;BME280;26327;42.550;23.120;2023-06-10T20:04:16;92407.28;;;17.59;100.00
39681;BME280;26327;42.550;23.120;2023-06-10T20:06:42;92320.69;;;16.73;100.00
39681;BME280;26327;42.550;23.120;2023-06-10T20:09:07;92360.81;;;16.96;100.00
39681;BME280;26327;42.550;23.120;2023-06-10T20:11:33;92300.59;;;16.78;100.00
39681;BME280;26327;42.550;23.120;2023-06-10T20:13:58;92329.56;;;16.83;100.00
39681;BME280;26327;42.550;23.120;2023-06-10T20:16:25;92385.72;;;17.46;100.00
39681;BME280;26327;42.550;23.120;2023-06-10T20:18:51;92397.31;;;17.73;100.00
39681;BME280;26327;42.550;23.120;2023-06-10T20:21:17;92381.47;;;17.56;100.00
39681;BME280;26327;42.550;23.120;2023-06-10T20:23:45;92385.94;;;17.44;100.00
39681;BME280;26327;42.550;23.120;2023-06-10T20:26:10;92375.09;;;17.41;100.00
39681;BME280;26327;42.550;23.120;2023-06-10T20:28:36;92253.38;;;16.55;100.00
39681;BME280;26327;42.550;23.120;2023-06-10T20:31:01;92317.72;;;16.57;100.00
39681;BME280;26327;42.550;23.120;2023-06-10T20:33:27;92384.56;;;16.66;100.00
39681;BME280;26327;42.550;23.120;2023-06-10T20:35:52;92378.88;;;16.70;100.00
39681;BME280;26327;42.550;23.120;2023-06-10T20:38:17;92375.31;;;16.64;100.00
39681;BME280;26327;42.550;23.120;2023-06-10T20:40:43;92338.81;;;16.62;100.00
39681;BME280;26327;42.550;23.120;2023-06-10T20:43:08;92322.16;;;16.22;100.00
39681;BME280;26327;42.550;23.120;2023-06-10T20:45:34;92396.94;;;16.48;100.00
39681;BME280;26327;42.550;23.120;2023-06-10T20:47:59;92328.94;;;15.58;100.00
39681;BME280;26327;42.550;23.120;2023-06-10T20:50:24;92385.97;;;15.86;100.00
39681;BME280;26327;42.550;23.120;2023-06-10T20:52:50;92328.19;;;15.69;100.00
39681;BME280;26327;42.550;23.120;2023-06-10T20:55:16;92366.69;;;16.10;100.00
39681;BME280;26327;42.550;23.120;2023-06-10T20:57:41;92332.84;;;16.09;100.00
39681;BME280;26327;42.550;23.120;2023-06-10T21:00:08;92394.69;;;16.63;100.00
39681;BME280;26327;42.550;23.120;2023-06-10T21:02:33;92364.91;;;16.46;100.00
39681;BME280;26327;42.550;23.120;2023-06-10T21:04:59;92297.31;;;16.36;100.00
39681;BME280;26327;42.550;23.120;2023-06-10T21:07:25;92381.59;;;17.10;100.00
39681;BME280;26327;42.550;23.120;2023-06-10T21:09:50;92406.56;;;17.12;100.00
39681;BME280;26327;42.550;23.120;2023-06-10T21:12:16;92339.50;;;16.81;100.00
39681;BME280;26327;42.550;23.120;2023-06-10T21:14:41;92362.97;;;17.11;100.00
39681;BME280;26327;42.550;23.120;2023-06-10T21:17:07;92377.03;;;17.05;100.00
39681;BME280;26327;42.550;23.120;2023-06-10T21:19:33;92368.22;;;16.64;100.00
39681;BME280;26327;42.550;23.120;2023-06-10T21:21:59;92354.25;;;16.05;100.00
39681;BME280;26327;42.550;23.120;2023-06-10T21:24:24;92363.38;;;15.61;100.00
39681;BME280;26327;42.550;23.120;2023-06-10T21:26:49;92358.34;;;15.41;100.00
39681;BME280;26327;42.550;23.120;2023-06-10T21:29:15;92306.22;;;14.73;100.00
39681;BME280;26327;42.550;23.120;2023-06-10T21:31:40;92327.84;;;14.99;100.00
39681;BME280;26327;42.550;23.120;2023-06-10T21:34:06;92326.66;;;15.31;100.00
39681;BME280;26327;42.550;23.120;2023-06-10T21:36:31;92373.75;;;15.68;100.00
39681;BME280;26327;42.550;23.120;2023-06-10T21:38:56;92385.63;;;16.12;100.00
39681;BME280;26327;42.550;23.120;2023-06-10T21:41:22;92352.28;;;16.01;100.00
39681;BME280;26327;42.550;23.120;2023-06-10T21:43:47;92362.88;;;15.94;100.00
39681;BME280;26327;42.550;23.120;2023-06-10T21:46:13;92322.25;;;15.43;100.00
39681;BME280;26327;42.550;23.120;2023-06-10T21:48:39;92366.28;;;15.83;100.00
39681;BME280;26327;42.550;23.120;2023-06-10T21:51:04;92363.72;;;15.65;100.00
39681;BME280;26327;42.550;23.120;2023-06-10T21:53:29;92385.31;;;15.90;100.00
39681;BME280;26327;42.550;23.120;2023-06-10T21:55:55;92335.72;;;15.77;100.00
39681;BME280;26327;42.550;23.120;2023-06-10T21:58:20;92231.72;;;15.24;100.00
39681;BME280;26327;42.550;23.120;2023-06-10T22:00:46;92357.75;;;15.88;100.00
39681;BME280;26327;42.550;23.120;2023-06-10T22:03:12;92370.84;;;15.99;100.00
39681;BME280;26327;42.550;23.120;2023-06-10T22:05:37;92376.41;;;16.33;100.00
39681;BME280;26327;42.550;23.120;2023-06-10T22:08:03;92376.97;;;16.47;100.00
39681;BME280;26327;42.550;23.120;2023-06-10T22:10:28;92384.66;;;16.06;100.00
39681;BME280;26327;42.550;23.120;2023-06-10T22:12:54;92378.16;;;15.97;100.00
39681;BME280;26327;42.550;23.120;2023-06-10T22:15:20;92291.06;;;15.12;100.00
39681;BME280;26327;42.550;23.120;2023-06-10T22:17:46;92358.50;;;15.28;100.00
39681;BME280;26327;42.550;23.120;2023-06-10T22:20:11;92376.31;;;15.86;100.00
39681;BME280;26327;42.550;23.120;2023-06-10T22:22:37;92308.38;;;15.61;100.00
39681;BME280;26327;42.550;23.120;2023-06-10T22:25:05;92364.09;;;16.22;100.00
39681;BME280;26327;42.550;23.120;2023-06-10T22:27:30;92327.47;;;16.03;100.00
39681;BME280;26327;42.550;23.120;2023-06-10T22:29:56;92250.47;;;16.28;100.00
39681;BME280;26327;42.550;23.120;2023-06-10T22:32:21;92299.66;;;16.96;100.00
39681;BME280;26327;42.550;23.120;2023-06-10T22:34:46;92305.41;;;17.21;100.00
39681;BME280;26327;42.550;23.120;2023-06-10T22:37:12;92369.84;;;17.81;100.00
39681;BME280;26327;42.550;23.120;2023-06-10T22:39:37;92310.53;;;17.28;100.00
39681;BME280;26327;42.550;23.120;2023-06-10T22:42:03;92345.97;;;17.42;100.00
39681;BME280;26327;42.550;23.120;2023-06-10T22:44:33;92335.56;;;17.47;100.00
39681;BME280;26327;42.550;23.120;2023-06-10T22:46:59;92361.66;;;17.77;100.00
39681;BME280;26327;42.550;23.120;2023-06-10T22:49:24;92302.88;;;17.26;100.00
39681;BME280;26327;42.550;23.120;2023-06-10T22:51:50;92355.47;;;16.80;100.00
39681;BME280;26327;42.550;23.120;2023-06-10T22:54:15;92292.53;;;16.56;100.00
39681;BME280;26327;42.550;23.120;2023-06-10T22:56:41;92352.69;;;17.21;100.00
39681;BME280;26327;42.550;23.120;2023-06-10T22:59:06;92340.97;;;16.89;100.00
39681;BME280;26327;42.550;23.120;2023-06-10T23:01:31;92273.22;;;16.51;100.00
39681;BME280;26327;42.550;23.120;2023-06-10T23:03:57;92307.63;;;17.01;100.00
39681;BME280;26327;42.550;23.120;2023-06-10T23:06:23;92333.38;;;17.27;100.00
39681;BME280;26327;42.550;23.120;2023-06-10T23:08:49;92300.25;;;16.51;100.00
39681;BME280;26327;42.550;23.120;2023-06-10T23:11:14;92326.38;;;16.34;100.00
39681;BME280;26327;42.550;23.120;2023-06-10T23:13:40;92305.69;;;15.91;100.00
39681;BME280;26327;42.550;23.120;2023-06-10T23:16:06;92303.06;;;15.80;100.00
39681;BME280;26327;42.550;23.120;2023-06-10T23:18:31;92327.63;;;15.67;100.00
39681;BME280;26327;42.550;23.120;2023-06-10T23:20:58;92328.66;;;15.66;100.00
39681;BME280;26327;42.550;23.120;2023-06-10T23:23:24;92312.75;;;15.91;100.00
39681;BME280;26327;42.550;23.120;2023-06-10T23:26:01;92340.16;;;16.53;100.00
39681;BME280;26327;42.550;23.120;2023-06-10T23:28:27;92273.94;;;16.23;100.00
39681;BME280;26327;42.550;23.120;2023-06-10T23:30:54;92293.97;;;16.52;100.00
39681;BME280;26327;42.550;23.120;2023-06-10T23:33:19;92267.78;;;16.17;100.00
39681;BME280;26327;42.550;23.120;2023-06-10T23:35:45;92270.88;;;16.26;100.00
39681;BME280;26327;42.550;23.120;2023-06-10T23:38:10;92315.66;;;16.83;100.00
39681;BME280;26327;42.550;23.120;2023-06-10T23:40:36;92339.22;;;17.18;100.00
39681;BME280;26327;42.550;23.120;2023-06-10T23:43:01;92344.84;;;16.63;100.00
39681;BME280;26327;42.550;23.120;2023-06-10T23:45:26;92266.66;;;16.13;100.00
39681;BME280;26327;42.550;23.120;2023-06-10T23:47:52;92289.44;;;16.36;100.00
39681;BME280;26327;42.550;23.120;2023-06-10T23:50:17;92303.44;;;16.42;100.00
39681;BME280;26327;42.550;23.120;2023-06-10T23:52:43;92279.72;;;16.48;100.00
39681;BME280;26327;42.550;23.120;2023-06-10T23:55:09;92334.78;;;16.95;100.00
39681;BME280;26327;42.550;23.120;2023-06-10T23:57:35;92255.00;;;16.56;100.00
